createdAt,value
2022-08-07T00:01:44.470Z,18.26
2022-08-07T00:03:53.090Z,18.24
2022-08-07T00:06:29.569Z,18.20
2022-08-07T00:09:16.109Z,18.18
2022-08-07T00:11:53.988Z,18.20
2022-08-07T00:14:25.411Z,18.14
2022-08-07T00:16:52.555Z,18.19
2022-08-07T00:19:21.428Z,18.16
2022-08-07T00:21:55.946Z,18.17
2022-08-07T00:24:24.397Z,18.36
2022-08-07T00:26:58.836Z,18.29
2022-08-07T00:29:33.315Z,18.36
2022-08-07T00:32:03.725Z,18.33
2022-08-07T00:34:32.603Z,18.31
2022-08-07T00:37:02.363Z,18.29
2022-08-07T00:39:33.504Z,18.40
2022-08-07T00:42:02.064Z,18.43
2022-08-07T00:44:33.312Z,18.34
2022-08-07T00:47:01.587Z,18.43
2022-08-07T00:50:20.737Z,18.34
2022-08-07T00:52:17.688Z,18.36
2022-08-07T00:54:53.661Z,18.39
2022-08-07T00:57:25.758Z,18.26
2022-08-07T00:59:53.993Z,18.42
2022-08-07T01:02:28.786Z,18.39
2022-08-07T01:04:58.804Z,18.39
2022-08-07T01:07:29.295Z,18.30
2022-08-07T01:10:06.897Z,18.35
2022-08-07T01:12:53.397Z,18.31
2022-08-07T01:16:01.226Z,18.38
2022-08-07T01:18:10.967Z,18.30
2022-08-07T01:20:59.248Z,18.40
2022-08-07T01:23:35.446Z,18.22
2022-08-07T01:26:08.422Z,18.27
2022-08-07T01:28:46.171Z,18.40
2022-08-07T01:31:19.701Z,18.29
2022-08-07T01:33:55.995Z,18.33
2022-08-07T01:36:33.549Z,18.25
2022-08-07T01:39:04.136Z,18.20
2022-08-07T01:41:40.664Z,18.17
2022-08-07T01:44:24.482Z,18.13
2022-08-07T01:46:51.916Z,18.17
2022-08-07T01:49:18.608Z,18.21
2022-08-07T01:52:03.522Z,18.29
2022-08-07T01:54:37.794Z,18.14
2022-08-07T01:57:20.730Z,18.14
2022-08-07T02:00:13.462Z,18.16
2022-08-07T02:03:19.160Z,18.06
2022-08-07T02:05:59.501Z,18.06
2022-08-07T02:08:29.895Z,18.11
2022-08-07T02:10:59.518Z,18.01
2022-08-07T02:13:57.684Z,18.11
2022-08-07T02:16:19.682Z,18.09
2022-08-07T02:18:48.045Z,18.10
2022-08-07T02:21:16.483Z,18.11
2022-08-07T02:23:44.904Z,18.12
2022-08-07T02:26:33.037Z,18.04
2022-08-07T02:29:00.194Z,18.12
2022-08-07T02:31:29.334Z,17.98
2022-08-07T02:34:04.142Z,18.02
2022-08-07T02:36:44.195Z,18.06
2022-08-07T02:39:17.087Z,17.99
2022-08-07T02:42:10.128Z,18.00
2022-08-07T02:44:42.251Z,17.96
2022-08-07T02:47:19.221Z,18.04
2022-08-07T02:49:57.665Z,18.14
2022-08-07T02:52:32.683Z,17.92
2022-08-07T02:55:04.388Z,17.87
2022-08-07T02:57:34.915Z,17.93
2022-08-07T03:00:11.194Z,17.93
2022-08-07T03:02:54.092Z,17.82
2022-08-07T03:05:23.229Z,17.61
2022-08-07T03:08:07.463Z,17.59
2022-08-07T03:10:46.533Z,17.58
2022-08-07T03:13:19.604Z,17.48
2022-08-07T03:15:56.716Z,17.46
2022-08-07T03:18:34.593Z,17.58
2022-08-07T03:21:08.412Z,17.48
2022-08-07T03:24:17.820Z,17.43
2022-08-07T03:26:29.041Z,17.23
2022-08-07T03:28:57.327Z,17.26
2022-08-07T03:31:43.589Z,17.39
2022-08-07T03:34:18.860Z,17.33
2022-08-07T03:36:52.954Z,17.37
2022-08-07T03:39:59.655Z,17.35
2022-08-07T03:42:08.513Z,17.34
2022-08-07T03:44:36.799Z,17.33
2022-08-07T03:47:13.165Z,17.25
2022-08-07T03:49:52.149Z,17.33
2022-08-07T03:52:28.049Z,17.47
2022-08-07T03:55:06.148Z,17.62
2022-08-07T03:58:32.978Z,17.53
2022-08-07T04:00:29.042Z,17.50
2022-08-07T04:02:56.961Z,17.46
2022-08-07T04:05:40.077Z,17.62
2022-08-07T04:08:13.177Z,17.58
2022-08-07T04:10:43.487Z,17.56
2022-08-07T04:13:22.442Z,17.67
2022-08-07T04:15:54.669Z,17.75
2022-08-07T04:18:56.589Z,17.80
2022-08-07T04:21:08.209Z,17.69
2022-08-07T04:23:43.962Z,17.84
2022-08-07T04:26:25.161Z,17.90
2022-08-07T04:28:56.541Z,17.91
2022-08-07T04:31:39.071Z,17.85
2022-08-07T04:34:16.824Z,17.85
2022-08-07T04:36:45.478Z,17.82
2022-08-07T04:39:17.817Z,17.85
2022-08-07T04:41:50.177Z,17.95
2022-08-07T04:44:19.047Z,17.98
2022-08-07T04:47:03.982Z,18.06
2022-08-07T04:49:47.602Z,18.16
2022-08-07T04:52:51.281Z,18.07
2022-08-07T04:58:24.122Z,18.19
2022-08-07T04:59:09.229Z,18.25
2022-08-07T05:01:50.520Z,18.39
2022-08-07T05:04:55.813Z,18.53
2022-08-07T05:07:48.498Z,18.55
2022-08-07T05:10:24.962Z,18.52
2022-08-07T05:13:09.984Z,18.54
2022-08-07T05:15:50.021Z,18.58
2022-08-07T05:18:24.302Z,18.70
2022-08-07T05:20:55.226Z,18.95
2022-08-07T05:23:36.721Z,19.02
2022-08-07T05:26:13.148Z,19.26
2022-08-07T05:28:50.305Z,19.52
2022-08-07T05:31:23.916Z,19.60
2022-08-07T05:34:04.658Z,19.74
2022-08-07T05:36:38.961Z,19.75
2022-08-07T05:40:17.573Z,19.71
2022-08-07T05:42:05.303Z,19.78
2022-08-07T05:44:37.790Z,19.64
2022-08-07T05:47:18.841Z,19.55
2022-08-07T05:49:49.547Z,19.49
2022-08-07T05:52:20.024Z,19.33
2022-08-07T05:54:55.833Z,19.18
2022-08-07T05:57:30.176Z,19.34
2022-08-07T06:00:01.890Z,19.39
2022-08-07T06:02:40.204Z,19.40
2022-08-07T06:05:15.709Z,19.70
2022-08-07T06:08:14.537Z,19.65
2022-08-07T06:10:36.601Z,19.86
2022-08-07T06:13:05.262Z,19.99
2022-08-07T06:15:42.291Z,20.08
2022-08-07T06:18:13.754Z,20.25
2022-08-07T06:20:50.916Z,20.15
2022-08-07T06:24:37.325Z,20.11
2022-08-07T06:26:19.830Z,19.89
2022-08-07T06:28:50.135Z,19.93
2022-08-07T06:31:20.647Z,19.99
2022-08-07T06:33:51.670Z,20.05
2022-08-07T06:36:34.744Z,20.17
2022-08-07T06:40:13.019Z,20.34
2022-08-07T06:42:01.666Z,20.51
2022-08-07T06:44:50.859Z,20.51
2022-08-07T06:47:19.476Z,20.66
2022-08-07T06:49:51.949Z,20.64
2022-08-07T06:52:32.095Z,20.71
2022-08-07T06:55:34.051Z,20.88
2022-08-07T06:57:59.170Z,20.97
2022-08-07T07:00:32.869Z,21.20
2022-08-07T07:03:10.712Z,21.13
2022-08-07T07:06:04.394Z,21.27
2022-08-07T07:08:27.410Z,21.24
2022-08-07T07:10:56.846Z,21.29
2022-08-07T07:13:56.155Z,21.17
2022-08-07T07:16:27.414Z,21.16
2022-08-07T07:19:04.128Z,21.31
2022-08-07T07:22:05.491Z,21.40
2022-08-07T07:24:27.963Z,21.59
2022-08-07T07:26:56.376Z,21.61
2022-08-07T07:29:56.342Z,21.68
2022-08-07T07:32:14.493Z,21.38
2022-08-07T07:34:45.928Z,21.32
2022-08-07T07:37:44.426Z,21.42
2022-08-07T07:40:10.227Z,21.51
2022-08-07T07:42:51.048Z,21.36
2022-08-07T07:45:19.767Z,21.39
2022-08-07T07:48:07.760Z,21.64
2022-08-07T07:50:39.279Z,21.71
2022-08-07T07:53:20.429Z,21.85
2022-08-07T07:56:00.961Z,22.12
2022-08-07T07:58:40.577Z,22.19
2022-08-07T08:02:01.571Z,22.34
2022-08-07T08:04:10.991Z,22.40
2022-08-07T08:06:40.757Z,22.69
2022-08-07T08:09:20.191Z,22.65
2022-08-07T08:12:02.865Z,22.81
2022-08-07T08:14:34.341Z,22.87
2022-08-07T08:18:36.951Z,22.78
2022-08-07T08:20:19.750Z,22.45
2022-08-07T08:23:00.389Z,22.36
2022-08-07T08:25:50.295Z,22.51
2022-08-07T08:28:23.936Z,22.89
2022-08-07T08:31:07.912Z,23.43
2022-08-07T08:33:49.084Z,23.48
2022-08-07T08:36:16.694Z,23.53
2022-08-07T08:38:44.847Z,23.82
2022-08-07T08:41:17.738Z,23.67
2022-08-07T08:43:58.626Z,24.15
2022-08-07T08:46:34.258Z,24.33
2022-08-07T08:49:46.544Z,24.16
2022-08-07T08:52:36.036Z,24.11
2022-08-07T08:55:21.176Z,24.04
2022-08-07T08:58:20.269Z,24.45
2022-08-07T09:00:53.357Z,24.60
2022-08-07T09:03:47.388Z,24.32
2022-08-07T09:06:40.389Z,24.55
2022-08-07T09:09:23.712Z,24.54
2022-08-07T09:12:31.069Z,24.76
2022-08-07T09:16:23.066Z,25.07
2022-08-07T09:18:32.944Z,25.47
2022-08-07T09:21:58.212Z,25.51
2022-08-07T09:24:31.902Z,25.64
2022-08-07T09:27:24.434Z,24.74
2022-08-07T09:30:08.253Z,24.77
2022-08-07T09:32:54.472Z,24.71
2022-08-07T09:36:02.739Z,24.47
2022-08-07T09:38:53.770Z,24.62
2022-08-07T09:41:36.224Z,24.46
2022-08-07T09:44:52.198Z,23.51
2022-08-07T09:48:02.446Z,23.96
2022-08-07T09:50:42.027Z,24.05
2022-08-07T09:53:12.717Z,24.29
2022-08-07T09:56:19.681Z,24.26
2022-08-07T09:59:28.147Z,24.73
2022-08-07T10:02:24.105Z,25.07
2022-08-07T10:05:58.067Z,25.04
2022-08-07T10:08:49.578Z,25.40
2022-08-07T10:12:02.432Z,25.16
2022-08-07T10:14:55.508Z,25.35
2022-08-07T10:18:00.770Z,24.87
2022-08-07T10:21:20.000Z,25.36
2022-08-07T10:24:28.779Z,25.04
2022-08-07T10:27:12.209Z,24.88
2022-08-07T10:30:06.615Z,25.15
2022-08-07T10:32:52.748Z,25.35
2022-08-07T10:35:55.229Z,25.35
2022-08-07T10:38:49.523Z,25.18
2022-08-07T10:41:52.247Z,25.85
2022-08-07T10:44:45.137Z,26.21
2022-08-07T10:47:52.573Z,25.55
2022-08-07T10:50:25.704Z,25.92
2022-08-07T10:52:59.898Z,26.33
2022-08-07T10:56:20.907Z,25.83
2022-08-07T10:59:21.685Z,25.84
2022-08-07T11:02:33.498Z,25.73
2022-08-07T11:05:19.028Z,25.79
2022-08-07T11:08:08.509Z,25.32
2022-08-07T11:10:57.928Z,25.94
2022-08-07T11:14:42.632Z,26.13
2022-08-07T11:16:30.497Z,26.06
2022-08-07T11:19:21.759Z,26.14
2022-08-07T11:22:27.346Z,26.60
2022-08-07T11:25:23.244Z,27.02
2022-08-07T11:28:15.501Z,26.50
2022-08-07T11:31:22.186Z,27.18
2022-08-07T11:34:00.452Z,27.05
2022-08-07T11:36:49.664Z,27.31
2022-08-07T11:39:59.285Z,27.63
2022-08-07T11:42:39.372Z,28.11
2022-08-07T11:45:35.843Z,27.89
2022-08-07T11:48:32.101Z,27.96
2022-08-07T11:51:41.818Z,28.22
2022-08-07T11:54:54.556Z,28.94
2022-08-07T11:58:00.748Z,29.03
2022-08-07T12:00:20.237Z,28.27
2022-08-07T12:03:41.538Z,28.20
2022-08-07T12:06:39.200Z,28.64
2022-08-07T12:09:07.491Z,28.74
2022-08-07T12:11:43.399Z,29.11
2022-08-07T12:14:30.139Z,29.09
2022-08-07T12:17:19.873Z,29.47
2022-08-07T12:20:02.567Z,29.61
2022-08-07T12:22:58.356Z,29.77
2022-08-07T12:26:02.999Z,29.69
2022-08-07T12:28:53.349Z,29.34
2022-08-07T12:31:52.674Z,28.95
2022-08-07T12:34:36.304Z,29.52
2022-08-07T12:37:08.466Z,29.42
2022-08-07T12:39:51.650Z,29.70
2022-08-07T12:42:27.662Z,29.75
2022-08-07T12:44:56.945Z,30.25
2022-08-07T12:47:37.441Z,30.10
2022-08-07T12:50:34.027Z,30.20
2022-08-07T12:53:18.551Z,29.35
2022-08-07T12:56:04.294Z,29.49
2022-08-07T12:58:42.971Z,29.24
2022-08-07T13:01:28.009Z,29.25
2022-08-07T13:04:34.128Z,29.66
2022-08-07T13:07:09.385Z,29.07
2022-08-07T13:10:37.308Z,29.63
2022-08-07T13:13:10.973Z,29.70
2022-08-07T13:15:59.802Z,29.54
2022-08-07T13:19:04.231Z,29.14
2022-08-07T13:21:58.962Z,29.60
2022-08-07T13:24:37.177Z,30.26
2022-08-07T13:27:14.843Z,29.96
2022-08-07T13:29:53.654Z,30.13
2022-08-07T13:32:37.513Z,29.47
2022-08-07T13:35:08.765Z,29.24
2022-08-07T13:37:49.668Z,29.07
2022-08-07T13:40:42.837Z,27.64
2022-08-07T13:43:15.379Z,28.12
2022-08-07T13:46:12.830Z,28.42
2022-08-07T13:48:38.759Z,28.73
2022-08-07T13:51:28.232Z,28.69
2022-08-07T13:54:01.634Z,29.03
2022-08-07T13:56:35.376Z,29.69
2022-08-07T13:59:12.827Z,30.53
2022-08-07T14:02:03.520Z,30.93
2022-08-07T14:04:36.097Z,30.51
2022-08-07T14:07:09.651Z,30.87
2022-08-07T14:10:03.043Z,31.46
2022-08-07T14:12:54.783Z,30.83
2022-08-07T14:15:37.464Z,30.57
2022-08-07T14:18:29.277Z,30.10
2022-08-07T14:21:21.197Z,29.86
2022-08-07T14:24:03.745Z,28.66
2022-08-07T14:26:50.397Z,28.72
2022-08-07T14:30:07.313Z,29.14
2022-08-07T14:32:15.138Z,28.59
2022-08-07T14:34:46.605Z,28.16
2022-08-07T14:37:16.976Z,28.55
2022-08-07T14:40:15.985Z,28.72
2022-08-07T14:42:33.862Z,28.64
2022-08-07T14:47:53.035Z,28.73
2022-08-07T14:50:46.101Z,29.00
2022-08-07T14:53:13.777Z,28.70
2022-08-07T14:58:34.973Z,28.42
2022-08-07T15:01:22.673Z,28.43
2022-08-07T15:03:52.588Z,28.37
2022-08-07T15:06:27.917Z,28.39
2022-08-07T15:08:56.065Z,28.36
2022-08-07T15:11:52.813Z,28.46
2022-08-07T15:14:17.340Z,28.60
2022-08-07T15:17:00.823Z,28.60
2022-08-07T15:20:30.196Z,28.36
2022-08-07T15:22:23.182Z,28.07
2022-08-07T15:28:30.847Z,27.89
2022-08-07T15:31:05.005Z,27.68
2022-08-07T15:33:33.823Z,27.75
2022-08-07T15:38:59.336Z,27.85
2022-08-07T15:42:42.420Z,27.48
2022-08-07T15:44:19.307Z,27.52
2022-08-07T15:46:52.600Z,27.43
2022-08-07T15:50:03.841Z,27.37
2022-08-07T15:52:20.890Z,27.11
2022-08-07T15:54:48.879Z,27.27
2022-08-07T15:57:39.267Z,27.07
2022-08-07T16:00:08.763Z,27.00
2022-08-07T16:02:56.126Z,26.70
2022-08-07T16:05:31.224Z,26.82
2022-08-07T16:08:32.438Z,26.50
2022-08-07T16:11:00.062Z,26.59
2022-08-07T16:13:59.248Z,26.30
2022-08-07T16:16:48.965Z,26.07
2022-08-07T16:19:42.183Z,25.80
2022-08-07T16:22:37.733Z,25.57
2022-08-07T16:25:52.382Z,25.29
2022-08-07T16:30:06.767Z,25.18
2022-08-07T16:31:51.817Z,24.88
2022-08-07T16:34:48.172Z,24.75
2022-08-07T16:38:06.924Z,24.51
2022-08-07T16:40:28.755Z,24.29
2022-08-07T16:44:05.759Z,24.18
2022-08-07T16:47:07.646Z,24.07
2022-08-07T16:50:27.149Z,24.05
2022-08-07T16:54:01.357Z,23.82
2022-08-07T16:56:21.017Z,23.40
2022-08-07T16:59:17.414Z,23.07
2022-08-07T17:02:52.249Z,22.92
2022-08-07T17:06:19.134Z,22.51
2022-08-07T17:09:10.497Z,22.08
2022-08-07T17:12:01.378Z,21.79
2022-08-07T17:14:42.635Z,21.56
2022-08-07T17:17:23.909Z,21.38
2022-08-07T17:20:03.061Z,21.25
2022-08-07T17:22:49.063Z,21.16
2022-08-07T17:25:47.664Z,21.08
2022-08-07T17:28:14.518Z,21.00
2022-08-07T17:30:59.690Z,20.89
2022-08-07T17:34:08.747Z,20.75
2022-08-07T17:36:25.990Z,20.60
2022-08-07T17:39:02.247Z,20.49
2022-08-07T17:42:01.910Z,20.46
2022-08-07T17:44:50.016Z,20.51
2022-08-07T17:47:41.825Z,20.20
2022-08-07T17:50:19.303Z,20.00
2022-08-07T17:52:55.400Z,19.86
2022-08-07T17:56:06.290Z,19.73
2022-08-07T17:58:46.173Z,19.69
2022-08-07T18:01:21.949Z,19.60
2022-08-07T18:04:16.628Z,19.48
2022-08-07T18:07:20.912Z,19.39
2022-08-07T18:10:06.907Z,19.27
2022-08-07T18:13:09.889Z,19.15
2022-08-07T18:16:05.007Z,19.11
2022-08-07T18:21:01.246Z,19.01
2022-08-07T18:21:53.593Z,19.01
2022-08-07T18:24:37.609Z,18.83
2022-08-07T18:27:17.500Z,18.79
2022-08-07T18:30:06.081Z,18.81
2022-08-07T18:32:51.765Z,18.79
2022-08-07T18:35:52.101Z,18.73
2022-08-07T18:38:54.815Z,18.74
2022-08-07T18:41:47.205Z,18.75
2022-08-07T18:45:39.982Z,18.70
2022-08-07T18:47:45.015Z,18.66
2022-08-07T18:50:40.917Z,18.59
2022-08-07T18:53:40.111Z,18.71
2022-08-07T18:56:14.751Z,18.65
2022-08-07T18:58:44.522Z,18.80
2022-08-07T19:02:18.215Z,18.65
2022-08-07T19:04:19.660Z,18.53
2022-08-07T19:07:02.154Z,18.57
2022-08-07T19:09:58.946Z,18.53
2022-08-07T19:12:57.971Z,18.51
2022-08-07T19:17:04.109Z,18.47
2022-08-07T19:19:46.868Z,18.49
2022-08-07T19:22:30.371Z,18.48
2022-08-07T19:24:58.534Z,18.49
2022-08-07T19:28:58.034Z,18.44
2022-08-07T19:31:04.540Z,18.44
2022-08-07T19:33:13.402Z,18.45
2022-08-07T19:35:53.328Z,18.44
2022-08-07T19:38:21.657Z,18.44
2022-08-07T19:40:51.509Z,18.39
2022-08-07T19:43:43.661Z,18.38
2022-08-07T19:46:12.259Z,18.42
2022-08-07T19:48:42.225Z,18.40
2022-08-07T19:51:20.614Z,18.42
2022-08-07T19:54:33.747Z,18.44
2022-08-07T19:57:52.164Z,18.44
2022-08-07T19:59:40.715Z,18.41
2022-08-07T20:02:19.790Z,18.38
2022-08-07T20:04:50.241Z,18.34
2022-08-07T20:07:46.381Z,18.31
2022-08-07T20:10:35.275Z,18.27
2022-08-07T20:13:06.426Z,18.23
2022-08-07T20:15:43.626Z,18.19
2022-08-07T20:18:14.672Z,18.17
2022-08-07T20:20:46.982Z,18.14
2022-08-07T20:23:32.949Z,18.15
2022-08-07T20:26:09.992Z,18.11
2022-08-07T20:28:39.116Z,18.11
2022-08-07T20:31:21.663Z,18.10
2022-08-07T20:33:56.787Z,18.01
2022-08-07T20:36:27.655Z,18.04
2022-08-07T20:39:00.902Z,18.03
2022-08-07T20:41:42.702Z,18.03
2022-08-07T20:44:13.078Z,18.02
2022-08-07T20:46:44.117Z,18.00
2022-08-07T20:50:01.030Z,18.22
2022-08-07T20:52:06.652Z,18.05
2022-08-07T20:54:41.718Z,17.98
2022-08-07T20:57:25.618Z,17.93
2022-08-07T21:00:06.669Z,17.92
2022-08-07T21:02:58.175Z,18.04
2022-08-07T21:05:50.535Z,17.99
2022-08-07T21:08:36.469Z,17.91
2022-08-07T21:11:14.242Z,17.94
2022-08-07T21:14:16.495Z,17.90
2022-08-07T21:16:46.727Z,17.88
2022-08-07T21:19:32.046Z,17.84
2022-08-07T21:22:19.023Z,17.84
2022-08-07T21:24:47.959Z,17.84
2022-08-07T21:27:25.644Z,17.97
2022-08-07T21:30:10.127Z,17.92
2022-08-07T21:33:23.207Z,17.83
2022-08-07T21:36:04.778Z,17.80
2022-08-07T21:38:49.957Z,17.79
2022-08-07T21:41:51.978Z,17.77
2022-08-07T21:44:44.887Z,17.76
2022-08-07T21:47:31.853Z,17.76
2022-08-07T21:50:22.545Z,17.74
2022-08-07T21:52:58.322Z,17.71
2022-08-07T21:55:30.368Z,17.66
2022-08-07T21:58:30.181Z,17.72
2022-08-07T22:01:01.876Z,17.69
2022-08-07T22:03:42.111Z,17.66
2022-08-07T22:06:30.457Z,17.68
2022-08-07T22:09:10.953Z,17.63
2022-08-07T22:12:04.890Z,17.61
2022-08-07T22:14:36.128Z,17.59
2022-08-07T22:17:05.927Z,17.55
2022-08-07T22:20:22.811Z,17.55
2022-08-07T22:22:57.346Z,17.54
2022-08-07T22:25:39.947Z,17.49
2022-08-07T22:28:31.008Z,17.50
2022-08-07T22:31:45.433Z,17.46
2022-08-07T22:34:13.024Z,17.41
2022-08-07T22:36:40.286Z,17.43
2022-08-07T22:39:53.096Z,17.37
2022-08-07T22:42:25.904Z,17.31
2022-08-07T22:44:58.030Z,17.27
2022-08-07T22:47:35.086Z,17.22
2022-08-07T22:50:20.513Z,17.14
2022-08-07T22:53:02.839Z,17.12
2022-08-07T22:55:48.353Z,17.10
2022-08-07T22:58:28.087Z,17.07
2022-08-07T23:01:07.688Z,17.02
2022-08-07T23:04:05.874Z,17.00
2022-08-07T23:06:51.699Z,16.96
2022-08-07T23:10:03.488Z,16.89
2022-08-07T23:13:06.897Z,16.81
2022-08-07T23:16:06.245Z,16.80
2022-08-07T23:19:14.220Z,16.79
2022-08-07T23:21:51.341Z,16.67
2022-08-07T23:24:45.383Z,16.64
2022-08-07T23:27:33.959Z,16.57
2022-08-07T23:30:38.838Z,16.46
2022-08-07T23:34:33.461Z,16.37
2022-08-07T23:36:23.003Z,16.34
2022-08-07T23:38:58.691Z,16.26
2022-08-07T23:41:47.760Z,16.20
2022-08-07T23:44:52.946Z,16.14
2022-08-07T23:47:30.808Z,16.03
2022-08-07T23:50:33.471Z,15.96
2022-08-07T23:53:51.252Z,15.90
2022-08-07T23:56:41.738Z,15.82
